Time;durP1;ratioP1;P1;durP2;ratioP2;P2;SDS_P1;SDS_P2;PMS_P1;PMS_P2;Temp;Humidity;BMP_temperature;BMP_pressure;BME280_temperature;BME280_humidity;BME280_pressure;Samples;Min_cycle;Max_cycle;Signal;HPM_P1;HPM_P2
2022/02/20 00:01:46;;;;;;;6.30;2.20;;;4.30;99.90;;;;;;5108069;28;20374;-83
2022/02/20 00:04:12;;;;;;;7.30;2.53;;;4.20;99.90;;;;;;5110537;28;20849;-83
2022/02/20 00:06:38;;;;;;;7.32;2.60;;;4.20;99.90;;;;;;5088170;28;20437;-84
2022/02/20 00:09:07;;;;;;;6.65;2.45;;;4.20;99.90;;;;;;5111138;28;20469;-83
2022/02/20 00:11:33;;;;;;;7.23;2.63;;;4.20;99.90;;;;;;5108812;28;20843;-83
2022/02/20 00:13:58;;;;;;;7.77;2.97;;;4.20;99.90;;;;;;5091181;28;20458;-82
2022/02/20 00:16:24;;;;;;;7.00;2.50;;;4.20;99.90;;;;;;5114088;28;20469;-83
2022/02/20 00:18:50;;;;;;;8.68;2.50;;;4.20;99.90;;;;;;5103345;28;20406;-83
2022/02/20 00:21:16;;;;;;;6.97;2.55;;;4.20;99.90;;;;;;5116487;28;20363;-83
2022/02/20 00:23:42;;;;;;;8.10;2.45;;;4.20;99.90;;;;;;5093402;28;20378;-84
2022/02/20 00:26:08;;;;;;;6.15;2.47;;;4.20;99.90;;;;;;5098079;28;20949;-83
2022/02/20 00:28:33;;;;;;;7.03;2.47;;;4.20;99.90;;;;;;5113983;28;20903;-83
2022/02/20 00:30:59;;;;;;;5.87;2.40;;;4.30;99.90;;;;;;5099535;28;20448;-82
2022/02/20 00:33:25;;;;;;;8.00;2.80;;;4.20;99.90;;;;;;5116102;28;20420;-83
2022/02/20 00:35:52;;;;;;;10.13;2.70;;;4.30;99.90;;;;;;5110607;28;20896;-83
2022/02/20 00:38:21;;;;;;;7.35;2.53;;;4.30;99.90;;;;;;5093821;28;20497;-82
2022/02/20 00:40:46;;;;;;;7.95;2.75;;;4.20;99.90;;;;;;5123319;27;20381;-81
2022/02/20 00:43:12;;;;;;;7.15;2.60;;;4.20;99.90;;;;;;5126077;27;20461;-82
2022/02/20 00:45:47;;;;;;;9.07;2.88;;;4.20;99.90;;;;;;5129444;27;20902;-80
2022/02/20 00:48:17;;;;;;;7.90;2.85;;;4.20;99.90;;;;;;5131680;27;20446;-80
2022/02/20 00:50:58;;;;;;;7.45;3.08;;;4.30;99.90;;;;;;5126587;27;20393;-81
2022/02/20 00:53:26;;;;;;;9.83;2.73;;;4.30;99.90;;;;;;5090185;28;20387;-81
2022/02/20 00:56:09;;;;;;;8.98;2.80;;;4.10;99.90;;;;;;5090936;28;20880;-81
2022/02/20 00:58:35;;;;;;;8.07;2.90;;;4.10;99.90;;;;;;5108687;28;20822;-81
2022/02/20 01:01:01;;;;;;;7.38;2.67;;;4.00;99.90;;;;;;5090950;28;20386;-81
2022/02/20 01:03:26;;;;;;;6.32;2.58;;;4.00;99.90;;;;;;5110968;28;20859;-81
2022/02/20 01:05:53;;;;;;;8.30;2.93;;;4.00;99.90;;;;;;5092251;28;20424;-81
2022/02/20 01:08:18;;;;;;;6.78;2.80;;;4.00;99.90;;;;;;5106867;28;20367;-81
2022/02/20 01:10:45;;;;;;;7.30;2.85;;;3.90;99.90;;;;;;5113073;28;20453;-81
2022/02/20 01:13:10;;;;;;;8.38;3.22;;;3.90;99.90;;;;;;5111299;28;20852;-82
2022/02/20 01:15:36;;;;;;;10.70;3.67;;;3.80;99.90;;;;;;5094938;28;20361;-82
2022/02/20 01:18:02;;;;;;;7.97;3.55;;;3.80;99.90;;;;;;5114456;28;20918;-81
2022/02/20 01:20:27;;;;;;;8.98;3.58;;;3.80;99.90;;;;;;5113700;28;20448;-81
2022/02/20 01:22:53;;;;;;;8.23;3.50;;;3.90;99.90;;;;;;5096664;28;20487;-82
2022/02/20 01:25:20;;;;;;;8.23;3.47;;;3.90;99.90;;;;;;5094824;28;21014;-81
2022/02/20 01:27:46;;;;;;;5.97;3.10;;;3.80;99.90;;;;;;5111378;28;20435;-81
2022/02/20 01:30:11;;;;;;;8.18;3.72;;;3.70;99.90;;;;;;5094888;28;20465;-81
2022/02/20 01:32:37;;;;;;;6.78;3.00;;;3.70;99.90;;;;;;5112204;28;20690;-81
2022/02/20 01:35:03;;;;;;;9.70;3.43;;;3.70;99.90;;;;;;5111612;28;20848;-82
2022/02/20 01:37:29;;;;;;;10.67;3.43;;;3.60;99.90;;;;;;5112756;28;20370;-80
2022/02/20 01:39:54;;;;;;;7.13;3.10;;;3.50;99.90;;;;;;5116152;28;20926;-79
2022/02/20 01:42:20;;;;;;;9.00;3.57;;;3.50;99.90;;;;;;5118425;28;20374;-80
2022/02/20 01:44:45;;;;;;;6.28;3.20;;;3.50;99.90;;;;;;5118776;28;20386;-81
2022/02/20 01:47:14;;;;;;;6.30;3.10;;;3.60;99.90;;;;;;5118234;28;20374;-81
2022/02/20 01:49:41;;;;;;;6.72;3.63;;;3.60;99.90;;;;;;5117167;28;20387;-80
2022/02/20 01:52:06;;;;;;;7.93;3.33;;;3.60;99.90;;;;;;5100686;28;20419;-81
2022/02/20 01:54:32;;;;;;;10.07;3.50;;;3.80;99.90;;;;;;5097510;28;20383;-82
2022/02/20 01:56:58;;;;;;;9.27;3.67;;;3.80;99.90;;;;;;5118833;28;21014;-81
2022/02/20 01:59:25;;;;;;;6.68;3.60;;;3.80;99.90;;;;;;5119375;28;20411;-81
2022/02/20 02:01:53;;;;;;;10.02;4.72;;;3.70;99.90;;;;;;5117381;28;20382;-81
2022/02/20 02:04:19;;;;;;;7.82;3.85;;;3.60;99.90;;;;;;5118448;28;20428;-81
2022/02/20 02:06:46;;;;;;;7.68;3.63;;;3.60;99.90;;;;;;5117794;28;20381;-81
2022/02/20 02:09:11;;;;;;;10.43;4.00;;;3.70;99.90;;;;;;5115840;28;20374;-82
2022/02/20 02:11:39;;;;;;;10.30;4.35;;;3.70;99.90;;;;;;5098144;28;20395;-81
2022/02/20 02:14:05;;;;;;;9.23;4.38;;;3.60;99.90;;;;;;5117519;28;20375;-80
2022/02/20 02:16:30;;;;;;;7.23;4.47;;;3.60;99.90;;;;;;5116209;28;20382;-81
2022/02/20 02:18:56;;;;;;;9.93;4.63;;;3.60;99.90;;;;;;5117179;28;20421;-81
2022/02/20 02:21:22;;;;;;;7.20;4.82;;;3.60;99.90;;;;;;5118406;28;20371;-80
2022/02/20 02:23:47;;;;;;;7.63;5.10;;;3.60;99.90;;;;;;5100566;28;20406;-81
2022/02/20 02:26:15;;;;;;;9.82;5.55;;;3.60;99.90;;;;;;5116440;28;20374;-81
2022/02/20 02:28:41;;;;;;;9.97;5.40;;;3.60;99.90;;;;;;5110731;28;20375;-80
2022/02/20 02:31:07;;;;;;;8.32;5.25;;;3.60;99.90;;;;;;5117346;28;20828;-81
2022/02/20 02:33:34;;;;;;;9.60;5.50;;;3.50;99.90;;;;;;5096616;28;20383;-80
2022/02/20 02:36:01;;;;;;;8.70;5.60;;;3.60;99.90;;;;;;5118774;28;20387;-81
2022/02/20 02:38:27;;;;;;;11.18;5.80;;;3.60;99.90;;;;;;5119449;28;20882;-80
2022/02/20 02:40:59;;;;;;;9.60;6.22;;;3.60;99.90;;;;;;5102717;28;20391;-81
2022/02/20 02:43:25;;;;;;;9.13;5.70;;;3.50;99.90;;;;;;5120323;28;20374;-81
2022/02/20 02:45:51;;;;;;;9.13;5.65;;;3.50;99.90;;;;;;5120086;28;20355;-81
2022/02/20 02:48:17;;;;;;;8.95;5.93;;;3.60;99.90;;;;;;5117565;28;20367;-81
2022/02/20 02:50:43;;;;;;;10.50;5.78;;;3.60;99.90;;;;;;5100503;28;20375;-81
2022/02/20 02:53:08;;;;;;;7.65;5.95;;;3.60;99.90;;;;;;5121662;28;20396;-82
2022/02/20 02:55:34;;;;;;;7.85;5.47;;;3.60;99.90;;;;;;5121300;28;20428;-81
2022/02/20 02:58:00;;;;;;;9.98;5.90;;;3.60;99.90;;;;;;5121178;28;20405;-81
2022/02/20 03:00:27;;;;;;;8.30;5.65;;;3.60;99.90;;;;;;5118934;28;20438;-81
2022/02/20 03:02:52;;;;;;;8.75;5.68;;;3.70;99.90;;;;;;5101097;28;20462;-81
2022/02/20 03:05:18;;;;;;;9.00;5.57;;;3.60;99.90;;;;;;5119211;28;20789;-81
2022/02/20 03:07:44;;;;;;;9.13;5.77;;;3.70;99.90;;;;;;5119532;28;20375;-80
2022/02/20 03:10:09;;;;;;;9.63;5.30;;;3.60;99.90;;;;;;5100675;28;20895;-80
2022/02/20 03:12:35;;;;;;;8.83;5.40;;;3.60;99.90;;;;;;5101418;28;20383;-81
2022/02/20 03:15:01;;;;;;;9.07;5.47;;;3.60;99.90;;;;;;5118853;28;20371;-81
2022/02/20 03:17:27;;;;;;;6.67;4.83;;;3.60;99.90;;;;;;5099996;28;20379;-81
2022/02/20 03:19:52;;;;;;;8.67;4.90;;;3.70;99.90;;;;;;5097251;28;20406;-81
2022/02/20 03:22:18;;;;;;;10.53;5.80;;;3.70;99.90;;;;;;5115509;28;20877;-80
2022/02/20 03:24:44;;;;;;;8.40;5.22;;;3.70;99.90;;;;;;5116009;28;20386;-81
2022/02/20 03:27:10;;;;;;;7.80;4.95;;;3.70;99.90;;;;;;5117528;28;20363;-81
2022/02/20 03:29:36;;;;;;;11.20;5.32;;;3.70;99.90;;;;;;5115390;28;20450;-80
2022/02/20 03:32:02;;;;;;;9.70;5.37;;;3.50;99.90;;;;;;5114037;28;20437;-81
2022/02/20 03:34:27;;;;;;;9.40;5.57;;;3.60;99.90;;;;;;5116151;28;20489;-81
2022/02/20 03:36:53;;;;;;;9.10;5.50;;;3.50;99.90;;;;;;5098168;28;20385;-80
2022/02/20 03:39:20;;;;;;;9.13;5.50;;;3.60;99.90;;;;;;5118396;28;20406;-81
2022/02/20 03:41:45;;;;;;;7.65;5.07;;;3.60;99.90;;;;;;5095679;28;20382;-81
2022/02/20 03:44:11;;;;;;;8.18;4.68;;;3.60;99.90;;;;;;5113241;28;20883;-80
2022/02/20 03:46:36;;;;;;;8.23;5.00;;;3.60;99.90;;;;;;5117755;28;20436;-81
2022/02/20 03:49:02;;;;;;;9.90;4.57;;;3.70;99.90;;;;;;5115885;28;20394;-80
2022/02/20 03:51:28;;;;;;;8.85;4.90;;;3.60;99.90;;;;;;5115395;28;20909;-80
2022/02/20 03:53:54;;;;;;;7.70;4.83;;;3.70;99.90;;;;;;5100288;28;20378;-80
2022/02/20 03:56:19;;;;;;;9.10;4.67;;;3.70;99.90;;;;;;5121189;28;20371;-80
2022/02/20 03:58:45;;;;;;;7.25;4.43;;;3.80;99.90;;;;;;5120685;28;20903;-81
2022/02/20 04:01:10;;;;;;;7.65;4.25;;;3.80;99.90;;;;;;5120040;28;20398;-81
2022/02/20 04:03:36;;;;;;;6.47;4.27;;;3.70;99.90;;;;;;5102647;28;20363;-81
2022/02/20 04:06:02;;;;;;;7.23;4.10;;;3.80;99.90;;;;;;5120173;28;20387;-82
2022/02/20 04:08:27;;;;;;;7.03;3.87;;;3.80;99.90;;;;;;5100990;28;20941;-81
2022/02/20 04:10:53;;;;;;;5.47;3.42;;;3.90;99.90;;;;;;5102095;28;20378;-80
2022/02/20 04:13:18;;;;;;;5.97;3.58;;;3.80;99.90;;;;;;5120726;28;20523;-81
2022/02/20 04:15:44;;;;;;;6.60;4.00;;;3.90;99.90;;;;;;5119940;28;20740;-80
2022/02/20 04:18:10;;;;;;;7.07;3.90;;;3.80;99.90;;;;;;5119570;28;20390;-81
2022/02/20 04:20:35;;;;;;;5.93;3.90;;;3.80;99.90;;;;;;5101629;28;20398;-80
2022/02/20 04:23:01;;;;;;;5.70;4.15;;;3.90;99.90;;;;;;5116605;28;20367;-81
2022/02/20 04:25:27;;;;;;;4.38;3.70;;;3.80;99.90;;;;;;5121027;28;20367;-80
2022/02/20 04:27:52;;;;;;;6.80;4.10;;;3.90;99.90;;;;;;5102615;28;20386;-80
2022/02/20 04:30:19;;;;;;;4.93;4.43;;;3.90;99.90;;;;;;5121278;28;20370;-80
2022/02/20 04:32:45;;;;;;;4.90;3.92;;;3.90;99.90;;;;;;5118988;28;20910;-81
2022/02/20 04:35:11;;;;;;;4.15;3.75;;;3.80;99.90;;;;;;5116691;28;20383;-82
2022/02/20 04:37:37;;;;;;;5.00;3.50;;;3.80;99.90;;;;;;5119580;28;20761;-80
2022/02/20 04:40:06;;;;;;;4.00;3.60;;;3.80;99.90;;;;;;5119511;28;20387;-80
2022/02/20 04:42:31;;;;;;;3.97;3.60;;;3.80;99.90;;;;;;5101444;28;20386;-81
2022/02/20 04:44:57;;;;;;;4.07;3.67;;;3.80;99.90;;;;;;5121733;28;20737;-80
2022/02/20 04:47:22;;;;;;;4.23;3.83;;;3.70;99.90;;;;;;5120335;28;20374;-80
2022/02/20 04:49:48;;;;;;;4.20;3.80;;;3.70;99.90;;;;;;5102369;28;20401;-80
2022/02/20 04:52:14;;;;;;;4.63;3.83;;;3.70;99.90;;;;;;5121304;28;20379;-79
2022/02/20 04:54:40;;;;;;;3.63;3.33;;;3.80;99.90;;;;;;5119468;28;20386;-80
2022/02/20 04:57:05;;;;;;;3.80;3.50;;;3.80;99.90;;;;;;5103707;28;20751;-80
2022/02/20 04:59:31;;;;;;;5.30;4.00;;;3.80;99.90;;;;;;5123744;28;20426;-81
2022/02/20 05:01:56;;;;;;;4.40;4.00;;;3.70;99.90;;;;;;5122439;28;20414;-80
2022/02/20 05:04:22;;;;;;;4.45;3.60;;;3.80;99.90;;;;;;5103357;28;20483;-80
2022/02/20 05:06:48;;;;;;;4.22;3.90;;;3.90;99.90;;;;;;5102275;28;20498;-80
2022/02/20 05:09:13;;;;;;;4.25;3.85;;;3.80;99.90;;;;;;5121416;28;20418;-81
2022/02/20 05:11:39;;;;;;;4.33;3.93;;;3.70;99.90;;;;;;5120004;28;20869;-81
2022/02/20 05:14:04;;;;;;;4.57;4.17;;;3.80;99.90;;;;;;5120882;28;20453;-80
2022/02/20 05:16:31;;;;;;;4.65;4.20;;;3.80;99.90;;;;;;5124475;28;20861;-81
2022/02/20 05:18:57;;;;;;;4.87;4.47;;;3.80;99.90;;;;;;5124640;28;20390;-81
2022/02/20 05:21:22;;;;;;;4.90;4.50;;;3.80;99.90;;;;;;5105356;28;20885;-81
2022/02/20 05:23:48;;;;;;;4.73;4.33;;;3.80;99.90;;;;;;5123264;28;20388;-80
2022/02/20 05:26:14;;;;;;;5.10;4.60;;;3.80;99.90;;;;;;5120104;28;20371;-81
2022/02/20 05:28:41;;;;;;;5.50;5.00;;;3.80;99.90;;;;;;5122749;28;20402;-81
2022/02/20 05:31:06;;;;;;;5.20;4.70;;;3.80;99.90;;;;;;5121992;28;20463;-81
2022/02/20 05:33:32;;;;;;;5.73;5.13;;;3.80;99.90;;;;;;5121980;28;20374;-80
2022/02/20 05:35:58;;;;;;;5.70;5.20;;;3.90;99.90;;;;;;5122229;28;20391;-81
2022/02/20 05:38:24;;;;;;;5.55;5.03;;;3.80;99.90;;;;;;5121873;28;20459;-81
2022/02/20 05:40:49;;;;;;;5.77;5.27;;;3.80;99.90;;;;;;5103047;28;20422;-81
2022/02/20 05:43:15;;;;;;;5.28;4.88;;;3.80;99.90;;;;;;5117442;28;20724;-81
2022/02/20 05:45:41;;;;;;;5.55;5.05;;;3.80;99.90;;;;;;5117449;28;20363;-80
2022/02/20 05:48:06;;;;;;;5.30;4.82;;;3.80;99.90;;;;;;5117792;28;20794;-80
2022/02/20 05:50:32;;;;;;;5.47;4.95;;;3.80;99.90;;;;;;5101402;28;20390;-81
2022/02/20 05:52:58;;;;;;;5.97;5.03;;;3.80;99.90;;;;;;5118871;28;20378;-81
2022/02/20 05:55:24;;;;;;;5.70;5.10;;;3.80;99.90;;;;;;5119029;28;20366;-80
2022/02/20 05:57:52;;;;;;;5.70;5.20;;;3.80;99.90;;;;;;5117407;28;20440;-80
2022/02/20 06:00:23;;;;;;;6.03;5.40;;;3.70;99.90;;;;;;5118638;28;20370;-81
2022/02/20 06:02:49;;;;;;;5.90;5.03;;;3.70;99.90;;;;;;5100531;28;20880;-80
2022/02/20 06:05:14;;;;;;;5.93;5.33;;;3.80;99.90;;;;;;5117651;28;20367;-81
2022/02/20 06:07:40;;;;;;;5.90;5.37;;;3.80;99.90;;;;;;5097791;28;20404;-80
2022/02/20 06:10:07;;;;;;;5.93;5.43;;;3.80;99.90;;;;;;5116165;28;20405;-80
2022/02/20 06:12:33;;;;;;;5.75;5.25;;;3.70;99.90;;;;;;5115985;28;20390;-81
2022/02/20 06:14:59;;;;;;;6.38;5.78;;;3.70;99.90;;;;;;5116481;28;20762;-81
2022/02/20 06:17:25;;;;;;;5.83;5.30;;;3.60;99.90;;;;;;5115695;28;20371;-80
2022/02/20 06:19:51;;;;;;;6.65;6.05;;;3.70;99.90;;;;;;5116969;28;20389;-80
2022/02/20 06:22:17;;;;;;;6.72;6.03;;;3.70;99.90;;;;;;5117434;28;20386;-80
2022/02/20 06:24:42;;;;;;;6.30;5.80;;;3.80;99.90;;;;;;5098943;28;20409;-80
2022/02/20 06:27:08;;;;;;;6.13;5.63;;;3.90;99.90;;;;;;5117383;28;20374;-80
2022/02/20 06:29:34;;;;;;;6.38;5.88;;;3.80;99.90;;;;;;5117875;28;20366;-80
2022/02/20 06:32:00;;;;;;;6.90;6.20;;;3.80;99.90;;;;;;5117760;28;20363;-81
2022/02/20 06:34:26;;;;;;;6.30;5.70;;;4.00;99.90;;;;;;5117355;28;20381;-80
2022/02/20 06:36:52;;;;;;;6.57;5.97;;;3.90;99.90;;;;;;5116769;28;20456;-80
2022/02/20 06:39:18;;;;;;;7.00;6.22;;;4.00;99.90;;;;;;5116015;28;20402;-80
2022/02/20 06:41:44;;;;;;;6.90;6.15;;;4.00;99.90;;;;;;5116935;28;20890;-80
2022/02/20 06:44:09;;;;;;;7.00;6.40;;;4.00;99.90;;;;;;5121639;28;20362;-80
2022/02/20 06:46:35;;;;;;;7.50;6.78;;;4.00;99.90;;;;;;5118964;28;20370;-80
2022/02/20 06:49:01;;;;;;;7.28;6.57;;;4.00;99.90;;;;;;5118329;28;20430;-80
2022/02/20 06:51:28;;;;;;;7.85;6.65;;;4.00;99.90;;;;;;5118916;28;20402;-80
2022/02/20 06:53:54;;;;;;;6.93;6.32;;;4.10;99.90;;;;;;5099719;28;20461;-81
2022/02/20 06:56:19;;;;;;;6.97;6.38;;;4.10;99.90;;;;;;5120747;28;20374;-80
2022/02/20 06:58:45;;;;;;;6.88;6.18;;;4.20;99.90;;;;;;5121114;28;20391;-80
2022/02/20 07:01:11;;;;;;;7.40;6.60;;;4.20;99.90;;;;;;5119770;28;20381;-80
2022/02/20 07:03:37;;;;;;;7.13;6.43;;;4.30;99.90;;;;;;5102197;28;20838;-80
2022/02/20 07:06:04;;;;;;;6.63;6.03;;;4.30;99.90;;;;;;5119029;28;20391;-82
2022/02/20 07:08:30;;;;;;;7.28;6.45;;;4.30;99.90;;;;;;5120009;28;20367;-80
2022/02/20 07:10:55;;;;;;;6.72;6.13;;;4.40;99.90;;;;;;5102431;28;20375;-81
2022/02/20 07:13:21;;;;;;;6.70;5.90;;;4.30;99.90;;;;;;5120425;28;20431;-80
2022/02/20 07:15:48;;;;;;;6.50;5.90;;;4.50;99.90;;;;;;5119679;28;20412;-80
2022/02/20 07:18:14;;;;;;;7.55;6.22;;;4.50;99.90;;;;;;5102047;28;20474;-80
2022/02/20 07:20:41;;;;;;;6.73;6.13;;;4.50;99.90;;;;;;5120355;28;20394;-80
2022/02/20 07:23:08;;;;;;;6.50;5.93;;;4.60;99.90;;;;;;5119886;28;20395;-80
2022/02/20 07:25:33;;;;;;;8.68;7.78;;;4.70;99.90;;;;;;5119776;28;20374;-80
2022/02/20 07:27:59;;;;;;;8.13;7.43;;;4.80;99.90;;;;;;5118773;28;20382;-80
2022/02/20 07:30:28;;;;;;;6.72;6.13;;;4.90;99.90;;;;;;5120496;28;20363;-80
2022/02/20 07:32:56;;;;;;;6.83;6.23;;;5.00;99.90;;;;;;5120251;28;20783;-80
2022/02/20 07:35:22;;;;;;;6.97;6.38;;;5.00;99.90;;;;;;5119403;28;20366;-80
2022/02/20 07:37:49;;;;;;;7.38;6.68;;;5.00;99.90;;;;;;5120902;28;20391;-80
2022/02/20 07:40:16;;;;;;;8.40;7.60;;;5.00;99.90;;;;;;5119761;28;20390;-81
2022/02/20 07:42:42;;;;;;;8.00;7.30;;;5.00;99.90;;;;;;5119307;28;21097;-80
2022/02/20 07:45:08;;;;;;;7.33;6.67;;;4.90;99.90;;;;;;5119283;28;20412;-81
2022/02/20 07:48:00;;;;;;;7.65;6.95;;;5.00;99.90;;;;;;5101161;28;20381;-80
2022/02/20 07:50:27;;;;;;;7.70;7.00;;;4.90;99.90;;;;;;5118923;28;20686;-81
2022/02/20 07:52:54;;;;;;;7.00;6.30;;;5.00;99.90;;;;;;5100649;28;20437;-80
2022/02/20 07:55:20;;;;;;;6.90;6.28;;;5.10;99.90;;;;;;5118508;28;20868;-80
2022/02/20 07:57:47;;;;;;;6.80;6.20;;;5.10;99.90;;;;;;5095642;28;20398;-80
2022/02/20 08:00:17;;;;;;;6.85;6.18;;;5.20;99.90;;;;;;5108146;28;20374;-81
2022/02/20 08:02:43;;;;;;;7.18;6.55;;;5.20;99.90;;;;;;5132676;28;20377;-80
2022/02/20 08:05:09;;;;;;;7.15;6.55;;;5.10;99.90;;;;;;5120928;28;20381;-80
2022/02/20 08:07:35;;;;;;;8.00;7.30;;;5.20;99.90;;;;;;5139960;28;20426;-80
2022/02/20 08:10:02;;;;;;;7.13;6.53;;;5.10;99.90;;;;;;5141855;28;20373;-80
2022/02/20 08:12:27;;;;;;;7.57;6.88;;;5.20;99.90;;;;;;5122369;28;20709;-80
2022/02/20 08:14:55;;;;;;;7.40;6.70;;;5.20;99.90;;;;;;5141105;28;20376;-80
2022/02/20 08:17:21;;;;;;;7.63;6.93;;;5.40;99.90;;;;;;5140234;28;20383;-80
2022/02/20 08:19:46;;;;;;;7.35;6.75;;;5.40;99.90;;;;;;5140038;28;20404;-80
2022/02/20 08:22:12;;;;;;;7.53;6.93;;;5.40;99.90;;;;;;5138128;28;20385;-80
2022/02/20 08:24:38;;;;;;;7.30;6.60;;;5.30;99.90;;;;;;5139470;28;20373;-80
2022/02/20 08:27:03;;;;;;;7.38;6.78;;;5.40;99.90;;;;;;5140081;28;20865;-79
2022/02/20 08:29:29;;;;;;;6.90;6.30;;;5.50;99.90;;;;;;5139749;28;20384;-80
2022/02/20 08:31:57;;;;;;;6.45;5.95;;;5.60;99.90;;;;;;5120178;28;20391;-79
2022/02/20 08:34:23;;;;;;;6.90;6.30;;;5.80;99.90;;;;;;5138498;28;20385;-80
2022/02/20 08:36:48;;;;;;;6.38;5.88;;;5.80;99.90;;;;;;5138455;28;20377;-80
2022/02/20 08:39:14;;;;;;;6.70;6.20;;;6.00;99.90;;;;;;5140320;27;20435;-81
2022/02/20 08:41:40;;;;;;;6.53;6.03;;;6.00;99.90;;;;;;5142419;27;20357;-79
2022/02/20 08:44:06;;;;;;;6.53;5.93;;;6.20;99.90;;;;;;5141507;27;20369;-81
2022/02/20 08:46:32;;;;;;;6.90;6.30;;;6.40;99.90;;;;;;5143250;27;20373;-80
2022/02/20 08:48:58;;;;;;;6.80;6.20;;;6.20;99.90;;;;;;5124041;27;20434;-81
2022/02/20 08:51:24;;;;;;;7.40;6.80;;;6.40;99.90;;;;;;5135439;27;20490;-82
2022/02/20 08:53:49;;;;;;;6.30;5.80;;;6.60;99.90;;;;;;5121379;27;20467;-81
2022/02/20 08:56:15;;;;;;;6.50;6.00;;;6.70;99.90;;;;;;5120546;28;20374;-80
2022/02/20 08:58:42;;;;;;;6.53;5.93;;;6.70;99.90;;;;;;5120754;27;20391;-81
2022/02/20 09:01:07;;;;;;;6.30;5.80;;;6.80;99.90;;;;;;5117818;28;20375;-81
2022/02/20 09:03:33;;;;;;;6.53;6.03;;;6.70;99.90;;;;;;5101724;28;20394;-80
2022/02/20 09:05:59;;;;;;;6.70;6.20;;;6.60;99.90;;;;;;5104320;28;20378;-81
2022/02/20 09:08:26;;;;;;;6.28;5.78;;;6.60;99.90;;;;;;5122304;28;20395;-81
2022/02/20 09:10:52;;;;;;;6.13;5.63;;;6.50;99.90;;;;;;5122342;28;20381;-81
2022/02/20 09:13:18;;;;;;;6.70;6.10;;;6.60;99.90;;;;;;5104162;28;20383;-81
2022/02/20 09:15:44;;;;;;;6.67;6.10;;;6.70;99.90;;;;;;5104459;28;20791;-81
2022/02/20 09:18:10;;;;;;;6.50;6.00;;;6.80;99.90;;;;;;5121549;28;20403;-80
2022/02/20 09:20:37;;;;;;;6.85;6.25;;;6.70;99.90;;;;;;5122873;28;20382;-80
2022/02/20 09:23:02;;;;;;;6.53;5.93;;;6.70;99.90;;;;;;5121649;28;20390;-81
2022/02/20 09:25:38;;;;;;;7.50;6.80;;;6.80;99.90;;;;;;5121313;28;20937;-81
2022/02/20 09:28:04;;;;;;;6.43;5.93;;;6.80;99.90;;;;;;5101699;28;20867;-81
2022/02/20 09:30:30;;;;;;;6.95;6.35;;;6.90;99.90;;;;;;5108833;28;20382;-82
2022/02/20 09:32:55;;;;;;;6.75;6.15;;;6.90;99.90;;;;;;5101574;28;20736;-81
2022/02/20 09:35:23;;;;;;;6.63;6.03;;;6.80;99.90;;;;;;5101341;28;20383;-82
2022/02/20 09:37:48;;;;;;;6.70;6.20;;;6.80;99.90;;;;;;5098436;28;20891;-82
2022/02/20 09:40:14;;;;;;;7.07;6.50;;;6.70;99.90;;;;;;5115694;28;20403;-81
2022/02/20 09:42:42;;;;;;;7.68;7.07;;;6.60;99.90;;;;;;5107501;28;20398;-80
2022/02/20 09:45:08;;;;;;;7.70;7.00;;;6.60;99.90;;;;;;5118180;28;20412;-81
2022/02/20 09:47:37;;;;;;;7.32;6.72;;;6.60;99.90;;;;;;5118747;28;20377;-80
2022/02/20 09:50:04;;;;;;;7.55;6.95;;;6.70;99.90;;;;;;5098526;28;20445;-82
2022/02/20 09:52:29;;;;;;;7.63;7.03;;;6.80;99.90;;;;;;5101424;28;20379;-81
2022/02/20 09:54:55;;;;;;;8.75;7.95;;;6.70;99.90;;;;;;5100694;28;20402;-80
2022/02/20 09:57:30;;;;;;;8.35;7.65;;;6.70;99.90;;;;;;5114485;28;20395;-81
2022/02/20 09:59:55;;;;;;;8.25;7.53;;;6.70;99.90;;;;;;5079227;28;20419;-80
2022/02/20 10:02:21;;;;;;;8.77;7.97;;;6.60;99.90;;;;;;5080236;28;20536;-81
2022/02/20 10:04:52;;;;;;;9.30;8.47;;;6.60;99.90;;;;;;5118630;27;20453;-81
2022/02/20 10:07:33;;;;;;;9.52;8.63;;;6.60;99.90;;;;;;5138654;27;20379;-81
2022/02/20 10:10:03;;;;;;;9.02;8.18;;;6.60;99.90;;;;;;5117347;27;20453;-81
2022/02/20 10:12:30;;;;;;;8.93;8.13;;;6.60;99.90;;;;;;5119622;27;20820;-81
2022/02/20 10:14:56;;;;;;;9.82;9.02;;;6.60;99.90;;;;;;5120527;27;20383;-83
2022/02/20 10:17:23;;;;;;;9.13;8.30;;;6.70;99.90;;;;;;5094662;28;20473;-82
2022/02/20 10:19:56;;;;;;;9.27;8.45;;;6.60;99.90;;;;;;5082959;28;20485;-81
2022/02/20 10:22:40;;;;;;;9.60;8.68;;;6.70;99.90;;;;;;5121802;28;20379;-83
2022/02/20 10:25:11;;;;;;;9.23;8.38;;;6.80;99.90;;;;;;5101908;28;20733;-81
2022/02/20 10:27:48;;;;;;;10.48;9.48;;;7.00;99.90;;;;;;5118666;28;20390;-81
2022/02/20 10:30:23;;;;;;;10.82;9.82;;;7.00;99.90;;;;;;5091926;28;20865;-82
2022/02/20 10:33:05;;;;;;;11.03;9.93;;;6.90;99.90;;;;;;5121536;28;20385;-81
2022/02/20 10:35:34;;;;;;;11.13;10.23;;;7.00;99.90;;;;;;5106753;28;20380;-81
2022/02/20 10:38:06;;;;;;;11.55;10.38;;;7.20;99.90;;;;;;5105820;28;20383;-81
2022/02/20 10:40:32;;;;;;;10.95;9.95;;;7.20;99.90;;;;;;5096351;28;20402;-80
2022/02/20 10:43:03;;;;;;;10.80;9.70;;;7.10;99.90;;;;;;5115631;28;20879;-81
2022/02/20 10:45:33;;;;;;;10.27;9.32;;;7.10;99.90;;;;;;5085299;27;20388;-83
2022/02/20 10:48:02;;;;;;;11.57;9.38;;;7.10;99.90;;;;;;5135327;27;20395;-83
2022/02/20 10:50:31;;;;;;;9.63;8.73;;;7.20;99.90;;;;;;5118833;27;20791;-80
2022/02/20 10:53:10;;;;;;;9.55;8.70;;;7.20;99.90;;;;;;5116438;27;20773;-83
2022/02/20 10:55:44;;;;;;;9.85;9.05;;;7.10;99.90;;;;;;5113586;27;20469;-83
2022/02/20 10:58:11;;;;;;;9.75;8.73;;;7.10;99.90;;;;;;5114796;27;20526;-81
2022/02/20 11:00:48;;;;;;;10.53;9.20;;;7.00;99.90;;;;;;5135787;27;20370;-81
2022/02/20 11:03:15;;;;;;;9.35;8.45;;;7.10;99.90;;;;;;5134568;27;20754;-81
2022/02/20 11:05:43;;;;;;;8.98;8.13;;;7.00;99.90;;;;;;5115294;27;20845;-83
2022/02/20 11:08:12;;;;;;;8.57;7.78;;;7.00;99.90;;;;;;5113774;27;20377;-81
2022/02/20 11:10:40;;;;;;;7.97;7.17;;;6.80;99.90;;;;;;5125651;27;20384;-82
2022/02/20 11:13:09;;;;;;;8.80;7.40;;;6.80;99.90;;;;;;5083593;28;20377;-85
2022/02/20 11:15:35;;;;;;;7.05;6.35;;;6.80;99.90;;;;;;5080336;28;20443;-84
2022/02/20 11:18:04;;;;;;;7.77;6.40;;;6.70;99.90;;;;;;5114972;28;20384;-84
2022/02/20 11:20:31;;;;;;;7.25;6.45;;;6.70;99.90;;;;;;5081149;28;20369;-84
2022/02/20 11:23:03;;;;;;;7.35;5.97;;;6.60;99.90;;;;;;5096851;28;20936;-83
2022/02/20 11:25:33;;;;;;;8.83;6.63;;;6.60;99.90;;;;;;5110498;28;20386;-82
2022/02/20 11:28:00;;;;;;;7.10;6.38;;;6.40;99.90;;;;;;5122306;28;20383;-83
2022/02/20 11:30:26;;;;;;;10.15;7.00;;;6.40;99.90;;;;;;5117956;28;20378;-82
2022/02/20 11:32:55;;;;;;;9.30;7.00;;;6.40;99.90;;;;;;5108973;28;20899;-83
2022/02/20 11:35:21;;;;;;;8.27;6.85;;;6.40;99.90;;;;;;5106811;28;20390;-82
2022/02/20 11:37:56;;;;;;;7.90;6.97;;;6.30;99.90;;;;;;5094259;28;20402;-84
2022/02/20 11:40:24;;;;;;;7.95;7.15;;;6.30;99.90;;;;;;5089237;28;20749;-84
2022/02/20 11:42:59;;;;;;;7.38;6.63;;;6.10;99.90;;;;;;5110139;28;20394;-83
2022/02/20 11:45:29;;;;;;;9.02;7.18;;;6.10;99.90;;;;;;5089082;28;20515;-84
2022/02/20 11:48:05;;;;;;;7.80;6.72;;;6.10;99.90;;;;;;5094014;28;20443;-84
2022/02/20 11:50:41;;;;;;;8.68;7.07;;;6.00;99.90;;;;;;5112030;28;20429;-83
2022/02/20 11:53:09;;;;;;;14.87;10.03;;;5.90;99.90;;;;;;5091774;28;20383;-84
2022/02/20 11:55:44;;;;;;;17.80;12.32;;;6.00;99.90;;;;;;5088260;28;20429;-84
2022/02/20 11:58:21;;;;;;;14.68;11.00;;;5.90;99.90;;;;;;5107957;28;20383;-83
2022/02/20 12:00:59;;;;;;;27.17;17.58;;;5.80;99.90;;;;;;5094304;28;20385;-83
2022/02/20 12:03:52;;;;;;;25.95;17.58;;;5.80;99.90;;;;;;5108432;28;20446;-83
2022/02/20 12:06:22;;;;;;;39.55;25.98;;;5.70;99.90;;;;;;5087675;28;20382;-83
2022/02/20 12:08:57;;;;;;;36.30;24.55;;;5.60;99.90;;;;;;5111821;28;20378;-82
2022/02/20 12:11:53;;;;;;;41.13;30.50;;;5.60;99.90;;;;;;5104278;28;20375;-83
2022/02/20 12:14:25;;;;;;;24.17;21.52;;;5.60;99.90;;;;;;5090812;28;20396;-84
2022/02/20 12:16:54;;;;;;;14.13;10.80;;;5.50;99.90;;;;;;5108605;28;20460;-84
2022/02/20 12:19:38;;;;;;;13.90;12.13;;;5.50;99.90;;;;;;5077086;28;20512;-83
2022/02/20 12:22:25;;;;;;;8.65;7.85;;;5.50;99.90;;;;;;5102772;28;20400;-84
2022/02/20 12:24:56;;;;;;;8.55;7.63;;;5.40;99.90;;;;;;5084924;28;20420;-83
2022/02/20 12:27:27;;;;;;;10.00;8.55;;;5.40;99.90;;;;;;5101804;28;20384;-84
2022/02/20 12:30:04;;;;;;;14.83;12.87;;;5.40;99.90;;;;;;5099163;28;20974;-83
2022/02/20 12:32:31;;;;;;;15.33;13.03;;;5.30;99.90;;;;;;5089521;28;20483;-83
2022/02/20 12:35:19;;;;;;;13.05;10.85;;;5.40;99.90;;;;;;5104568;28;20482;-84
2022/02/20 12:37:50;;;;;;;12.15;10.93;;;5.40;99.90;;;;;;5102361;28;20395;-83
2022/02/20 12:40:22;;;;;;;12.00;10.57;;;5.50;99.90;;;;;;5089064;28;20438;-83
2022/02/20 12:42:55;;;;;;;11.32;9.77;;;5.60;99.90;;;;;;5109076;28;20963;-83
2022/02/20 12:45:34;;;;;;;10.30;8.83;;;5.60;99.90;;;;;;5094368;28;20384;-83
2022/02/20 12:48:06;;;;;;;11.60;10.00;;;5.70;99.90;;;;;;5098240;28;21192;-83
2022/02/20 12:50:40;;;;;;;12.35;9.48;;;5.70;99.90;;;;;;5081114;28;20395;-84
2022/02/20 12:53:06;;;;;;;10.50;8.80;;;5.80;99.90;;;;;;5116309;28;20442;-83
2022/02/20 12:55:33;;;;;;;13.33;9.20;;;5.90;99.90;;;;;;5098539;28;20442;-84
2022/02/20 12:58:01;;;;;;;10.32;8.80;;;6.00;99.90;;;;;;5101387;28;20463;-83